createdAt,value
2023-04-11T00:02:25.402Z,83.90
2023-04-11T00:04:55.027Z,82.60
2023-04-11T00:07:21.860Z,82.70
2023-04-11T00:09:51.314Z,84.00
2023-04-11T00:12:18.207Z,83.90
2023-04-11T00:14:48.862Z,83.40
2023-04-11T00:17:18.051Z,84.00
2023-04-11T00:19:47.250Z,84.10
2023-04-11T00:22:17.662Z,84.10
2023-04-11T00:24:45.298Z,83.80
2023-04-11T00:27:11.956Z,84.80
2023-04-11T00:29:38.770Z,84.10
2023-04-11T00:32:05.786Z,84.30
2023-04-11T00:34:34.079Z,84.50
2023-04-11T00:37:01.622Z,83.80
2023-04-11T00:39:35.203Z,84.50
2023-04-11T00:42:07.082Z,84.40
2023-04-11T00:44:35.169Z,84.20
2023-04-11T00:47:03.752Z,84.30
2023-04-11T00:49:31.949Z,84.50
2023-04-11T00:52:00.426Z,83.90
2023-04-11T00:57:03.546Z,84.20
2023-04-11T00:59:34.108Z,84.80
2023-04-11T01:02:03.341Z,85.20
2023-04-11T01:04:32.876Z,84.80
2023-04-11T01:07:06.158Z,85.60
2023-04-11T01:09:34.740Z,85.50
2023-04-11T01:12:05.604Z,85.80
2023-04-11T01:14:32.334Z,85.80
2023-04-11T01:17:02.320Z,86.30
2023-04-11T01:19:30.383Z,85.60
2023-04-11T01:22:01.685Z,86.40
2023-04-11T01:24:28.540Z,86.50
2023-04-11T01:26:57.986Z,86.50
2023-04-11T01:29:24.721Z,87.20
2023-04-11T01:31:53.854Z,87.30
2023-04-11T01:34:21.367Z,87.60
2023-04-11T01:36:48.334Z,88.10
2023-04-11T01:39:19.664Z,88.60
2023-04-11T01:41:47.822Z,89.10
2023-04-11T01:44:15.680Z,89.50
2023-04-11T01:46:45.770Z,89.40
2023-04-11T01:49:15.483Z,90.20
2023-04-11T01:51:47.570Z,90.10
2023-04-11T01:54:14.232Z,90.70
2023-04-11T01:56:41.022Z,90.90
2023-04-11T01:59:09.784Z,91.50
2023-04-11T02:01:38.893Z,91.70
2023-04-11T02:04:05.889Z,91.90
2023-04-11T02:06:38.544Z,92.40
2023-04-11T02:09:05.398Z,92.60
2023-04-11T02:11:32.335Z,93.50
2023-04-11T02:14:00.565Z,94.20
2023-04-11T02:16:29.968Z,94.50
2023-04-11T02:18:57.412Z,95.20
2023-04-11T02:21:24.293Z,96.10
2023-04-11T02:23:51.152Z,96.20
2023-04-11T02:26:20.133Z,96.10
2023-04-11T02:28:46.944Z,96.30
2023-04-11T02:31:15.989Z,96.60
2023-04-11T02:33:42.746Z,96.80
2023-04-11T02:36:09.552Z,97.40
2023-04-11T02:38:38.600Z,97.00
2023-04-11T02:41:06.055Z,97.10
2023-04-11T02:43:32.710Z,97.40
2023-04-11T02:46:12.793Z,97.40
2023-04-11T02:48:39.973Z,97.50
2023-04-11T02:51:06.861Z,97.60
2023-04-11T02:53:33.503Z,97.50
2023-04-11T02:56:00.580Z,97.60
2023-04-11T02:58:28.839Z,97.80
2023-04-11T03:03:23.222Z,97.80
2023-04-11T03:05:52.360Z,97.90
2023-04-11T03:08:19.099Z,98.40
2023-04-11T03:10:45.956Z,98.50
2023-04-11T03:13:12.717Z,98.70
2023-04-11T03:15:39.457Z,98.90
2023-04-11T03:18:06.183Z,98.70
2023-04-11T03:20:33.229Z,99.00
2023-04-11T03:22:59.896Z,99.20
2023-04-11T03:25:28.186Z,99.40
2023-04-11T03:27:59.991Z,99.30
2023-04-11T03:30:26.624Z,99.20
2023-04-11T03:32:54.629Z,99.70
2023-04-11T03:35:21.461Z,99.40
2023-04-11T03:37:48.179Z,99.80
2023-04-11T03:40:18.520Z,99.80
2023-04-11T03:42:48.739Z,99.90
2023-04-11T03:45:17.686Z,99.90
2023-04-11T03:47:46.773Z,99.90
2023-04-11T03:50:13.571Z,99.90
2023-04-11T03:52:40.273Z,99.90
2023-04-11T03:55:07.279Z,99.90
2023-04-11T03:57:36.408Z,99.90
2023-04-11T04:00:08.438Z,99.90
2023-04-11T04:02:36.195Z,99.90
2023-04-11T04:05:03.061Z,99.90
2023-04-11T04:07:29.802Z,99.90
2023-04-11T04:09:56.535Z,99.90
2023-04-11T04:12:28.219Z,99.90
2023-04-11T04:17:24.597Z,99.90
2023-04-11T04:19:51.768Z,99.90
2023-04-11T04:22:18.660Z,99.90
2023-04-11T04:24:48.181Z,99.90
2023-04-11T04:27:18.077Z,99.90
2023-04-11T04:29:47.404Z,99.90
2023-04-11T04:32:22.524Z,99.90
2023-04-11T04:34:54.893Z,99.90
2023-04-11T04:37:25.903Z,99.90
2023-04-11T04:39:57.325Z,99.90
2023-04-11T04:42:26.573Z,99.90
2023-04-11T04:44:54.810Z,99.90
2023-04-11T04:47:29.486Z,99.90
2023-04-11T04:49:56.781Z,99.90
2023-04-11T04:52:28.495Z,99.90
2023-04-11T04:54:58.214Z,99.90
2023-04-11T04:57:29.421Z,99.90
2023-04-11T04:59:57.036Z,99.90
2023-04-11T05:02:25.444Z,99.90
2023-04-11T05:04:54.133Z,99.90
2023-04-11T05:07:21.131Z,99.90
2023-04-11T05:09:50.024Z,99.90
2023-04-11T05:12:16.991Z,99.90
2023-04-11T05:14:43.766Z,99.90
2023-04-11T05:17:12.912Z,99.90
2023-04-11T05:19:39.575Z,99.90
2023-04-11T05:22:08.639Z,99.90
2023-04-11T05:24:35.281Z,99.90
2023-04-11T05:27:04.343Z,99.90
2023-04-11T05:29:31.240Z,99.90
2023-04-11T05:31:57.956Z,99.90
2023-04-11T05:34:34.761Z,99.90
2023-04-11T05:37:03.838Z,99.90
2023-04-11T05:39:32.844Z,99.90
2023-04-11T05:41:59.644Z,99.90
2023-04-11T05:44:26.327Z,99.90
2023-04-11T05:46:53.009Z,99.90
2023-04-11T05:49:22.133Z,99.90
2023-04-11T05:51:48.822Z,99.90
2023-04-11T05:54:34.884Z,99.90
2023-04-11T05:57:04.487Z,99.90
2023-04-11T05:59:32.461Z,99.90
2023-04-11T06:02:01.846Z,99.90
2023-04-11T06:04:31.254Z,99.90
2023-04-11T06:06:58.320Z,99.90
2023-04-11T06:09:25.003Z,99.90
2023-04-11T06:11:51.668Z,99.90
2023-04-11T06:14:18.461Z,99.90
2023-04-11T06:16:47.330Z,99.90
2023-04-11T06:19:14.045Z,99.90
2023-04-11T06:21:40.740Z,99.90
2023-04-11T06:24:12.954Z,99.90
2023-04-11T06:26:39.618Z,99.90
2023-04-11T06:31:34.146Z,99.90
2023-04-11T06:34:01.625Z,99.90
2023-04-11T06:36:29.740Z,99.90
2023-04-11T06:41:26.384Z,99.90
2023-04-11T06:43:53.046Z,99.90
2023-04-11T06:46:24.093Z,99.90
2023-04-11T06:48:52.978Z,99.90
2023-04-11T06:51:19.622Z,99.90
2023-04-11T06:53:46.339Z,99.90
2023-04-11T06:56:15.299Z,99.90
2023-04-11T06:58:42.080Z,99.90
2023-04-11T07:01:08.869Z,99.90
2023-04-11T07:06:05.674Z,99.90
2023-04-11T07:08:34.785Z,99.90
2023-04-11T07:11:03.700Z,99.90
2023-04-11T07:13:32.690Z,99.90
2023-04-11T07:16:01.740Z,99.90
2023-04-11T07:18:29.881Z,99.90
2023-04-11T07:20:56.759Z,99.90
2023-04-11T07:23:26.006Z,99.90
2023-04-11T07:25:54.396Z,99.80
2023-04-11T07:28:21.375Z,99.10
2023-04-11T07:30:48.106Z,98.50
2023-04-11T07:33:14.790Z,98.50
2023-04-11T07:35:43.971Z,98.00
2023-04-11T07:38:29.637Z,97.60
2023-04-11T07:40:57.247Z,97.40
2023-04-11T07:43:25.750Z,96.70
2023-04-11T07:45:53.487Z,95.80
2023-04-11T07:48:27.923Z,94.30
2023-04-11T07:53:27.692Z,93.50
2023-04-11T07:55:54.593Z,93.50
2023-04-11T07:58:26.027Z,92.20
2023-04-11T08:00:53.525Z,92.50
2023-04-11T08:03:20.949Z,92.00
2023-04-11T08:05:52.438Z,91.10
2023-04-11T08:08:19.180Z,90.40
2023-04-11T08:10:49.484Z,90.50
2023-04-11T08:13:17.417Z,90.90
2023-04-11T08:15:44.061Z,90.90
2023-04-11T08:18:13.781Z,90.50
2023-04-11T08:20:42.881Z,90.60
2023-04-11T08:23:11.779Z,89.80
2023-04-11T08:25:39.172Z,89.80
2023-04-11T08:28:06.562Z,90.00
2023-04-11T08:30:35.645Z,89.30
2023-04-11T08:33:04.682Z,88.40
2023-04-11T08:35:31.436Z,87.00
2023-04-11T08:38:00.433Z,88.20
2023-04-11T08:40:28.283Z,87.60
2023-04-11T08:43:10.377Z,86.40
2023-04-11T08:45:39.441Z,84.50
2023-04-11T08:48:07.157Z,84.40
2023-04-11T08:50:37.118Z,82.80
2023-04-11T08:53:08.223Z,81.70
2023-04-11T08:55:34.924Z,82.60
2023-04-11T08:58:02.865Z,81.90
2023-04-11T09:00:32.279Z,82.10
2023-04-11T09:03:06.386Z,80.90
2023-04-11T09:05:34.145Z,80.30
2023-04-11T09:08:06.279Z,79.40
2023-04-11T09:10:33.198Z,78.80
2023-04-11T09:13:13.285Z,79.20
2023-04-11T09:15:44.366Z,79.40
2023-04-11T09:18:33.221Z,78.50
2023-04-11T09:21:04.097Z,77.60
2023-04-11T09:23:33.907Z,77.60
2023-04-11T09:26:03.090Z,77.90
2023-04-11T09:28:45.264Z,77.50
2023-04-11T09:31:13.239Z,77.90
2023-04-11T09:33:55.921Z,78.00
2023-04-11T09:36:27.241Z,78.40
2023-04-11T09:38:57.297Z,78.00
2023-04-11T09:41:34.744Z,78.70
2023-04-11T09:44:01.954Z,78.20
2023-04-11T09:46:31.509Z,78.00
2023-04-11T09:49:01.815Z,76.90
2023-04-11T09:51:36.533Z,75.40
2023-04-11T09:54:06.648Z,74.90
2023-04-11T09:56:36.348Z,73.10
2023-04-11T09:59:08.339Z,73.70
2023-04-11T10:01:38.743Z,73.40
2023-04-11T10:04:05.495Z,72.30
2023-04-11T10:06:39.185Z,72.50
2023-04-11T10:09:11.045Z,72.30
2023-04-11T10:11:41.888Z,72.20
2023-04-11T10:14:08.560Z,72.50
2023-04-11T10:16:35.397Z,73.20
2023-04-11T10:21:33.747Z,73.10
2023-04-11T10:24:17.357Z,74.20
2023-04-11T10:27:03.601Z,74.90
2023-04-11T10:29:30.259Z,75.40
2023-04-11T10:32:15.544Z,76.20
2023-04-11T10:34:54.519Z,75.30
2023-04-11T10:37:50.400Z,75.80
2023-04-11T10:40:20.348Z,74.90
2023-04-11T10:42:49.899Z,74.80
2023-04-11T10:45:19.467Z,73.90
2023-04-11T10:48:10.288Z,74.20
2023-04-11T10:50:41.122Z,74.10
2023-04-11T10:53:11.061Z,71.90
2023-04-11T10:55:48.251Z,72.60
2023-04-11T10:58:22.131Z,73.00
2023-04-11T11:00:49.619Z,73.80
2023-04-11T11:03:16.520Z,73.20
2023-04-11T11:05:43.663Z,72.60
2023-04-11T11:08:10.702Z,71.80
2023-04-11T11:10:40.434Z,71.30
2023-04-11T11:13:07.413Z,71.00
2023-04-11T11:15:37.974Z,70.20
2023-04-11T11:18:10.802Z,69.70
2023-04-11T11:23:07.056Z,67.60
2023-04-11T11:25:38.728Z,67.60
2023-04-11T11:28:12.090Z,67.60
2023-04-11T11:33:29.378Z,66.20
2023-04-11T11:36:03.622Z,66.60
2023-04-11T11:38:31.061Z,66.80
2023-04-11T11:40:58.851Z,65.60
2023-04-11T11:43:29.321Z,65.60
2023-04-11T11:46:09.176Z,64.50
2023-04-11T11:48:38.666Z,64.90
2023-04-11T11:51:06.328Z,63.70
2023-04-11T11:53:33.273Z,63.50
2023-04-11T11:56:00.128Z,64.10
2023-04-11T11:58:27.338Z,65.00
2023-04-11T12:00:56.263Z,63.90
2023-04-11T12:03:24.760Z,63.90
2023-04-11T12:05:55.165Z,64.80
2023-04-11T12:08:24.309Z,64.10
2023-04-11T12:10:51.547Z,62.60
2023-04-11T12:13:27.107Z,62.80
2023-04-11T12:16:00.423Z,62.30
2023-04-11T12:18:28.650Z,62.60
2023-04-11T12:20:58.655Z,62.80
2023-04-11T12:23:25.345Z,61.70
2023-04-11T12:25:54.256Z,61.90
2023-04-11T12:28:21.463Z,60.80
2023-04-11T12:30:50.782Z,61.70
2023-04-11T12:33:17.817Z,61.80
2023-04-11T12:35:47.081Z,60.50
2023-04-11T12:38:16.633Z,61.10
2023-04-11T12:40:45.522Z,60.60
2023-04-11T12:43:12.199Z,59.90
2023-04-11T12:45:41.321Z,60.80
2023-04-11T12:48:11.231Z,60.20
2023-04-11T12:50:37.956Z,60.80
2023-04-11T12:53:04.607Z,59.30
2023-04-11T12:55:31.281Z,59.50
2023-04-11T12:57:57.990Z,59.80
2023-04-11T13:00:26.854Z,60.00
2023-04-11T13:02:54.500Z,60.40
2023-04-11T13:05:23.756Z,59.20
2023-04-11T13:07:52.626Z,60.60
2023-04-11T13:10:19.442Z,59.50
2023-04-11T13:12:51.144Z,59.30
2023-04-11T13:15:20.400Z,59.70
2023-04-11T13:17:47.293Z,59.90
2023-04-11T13:20:14.345Z,59.10
2023-04-11T13:22:43.701Z,59.40
2023-04-11T13:25:15.993Z,59.80
2023-04-11T13:27:42.792Z,59.40
2023-04-11T13:30:10.550Z,59.40
2023-04-11T13:32:37.403Z,59.20
2023-04-11T13:35:04.383Z,58.90
2023-04-11T13:37:35.462Z,59.30
2023-04-11T13:40:08.281Z,59.90
2023-04-11T13:42:37.342Z,60.10
2023-04-11T13:45:04.546Z,59.60
2023-04-11T13:47:31.379Z,59.70
2023-04-11T13:50:00.193Z,59.80
2023-04-11T13:52:27.254Z,59.70
2023-04-11T13:54:53.973Z,59.40
2023-04-11T13:57:21.248Z,59.10
2023-04-11T13:59:47.918Z,59.00
2023-04-11T14:02:16.781Z,59.00
2023-04-11T14:04:43.870Z,59.70
2023-04-11T14:07:10.800Z,59.50
2023-04-11T14:09:37.442Z,59.50
2023-04-11T14:12:04.223Z,59.40
2023-04-11T14:14:33.411Z,60.10
2023-04-11T14:17:02.326Z,60.80
2023-04-11T14:19:31.513Z,60.10
2023-04-11T14:21:58.270Z,59.30
2023-04-11T14:24:25.106Z,59.60
2023-04-11T14:26:51.887Z,58.50
2023-04-11T14:29:19.873Z,58.60
2023-04-11T14:31:47.800Z,59.50
2023-04-11T14:34:14.608Z,60.10
2023-04-11T14:36:43.625Z,60.10
2023-04-11T14:39:10.403Z,60.00
2023-04-11T14:41:37.129Z,60.30
2023-04-11T14:44:06.445Z,59.90
2023-04-11T14:46:34.415Z,60.60
2023-04-11T14:49:06.329Z,60.40
2023-04-11T14:51:33.016Z,60.50
2023-04-11T14:53:59.945Z,60.80
2023-04-11T14:56:29.325Z,60.30
2023-04-11T14:58:56.096Z,60.20
2023-04-11T15:01:23.096Z,60.60
2023-04-11T15:03:49.991Z,60.60
2023-04-11T15:06:19.367Z,60.60
2023-04-11T15:08:46.385Z,60.60
2023-04-11T15:11:13.034Z,60.80
2023-04-11T15:13:42.358Z,61.40
2023-04-11T15:16:09.090Z,61.20
2023-04-11T15:18:38.020Z,60.70
2023-04-11T15:21:04.978Z,60.80
2023-04-11T15:23:31.752Z,60.80
2023-04-11T15:26:02.579Z,60.70
2023-04-11T15:28:36.615Z,61.20
2023-04-11T15:31:10.046Z,60.70
2023-04-11T15:33:39.797Z,60.60
2023-04-11T15:36:09.110Z,61.10
2023-04-11T15:38:38.439Z,61.80
2023-04-11T15:41:05.711Z,62.30
2023-04-11T15:43:33.126Z,61.90
2023-04-11T15:46:02.095Z,61.70
2023-04-11T15:48:31.365Z,63.20
2023-04-11T15:51:10.278Z,63.30
2023-04-11T15:53:39.232Z,63.20
2023-04-11T15:56:09.874Z,63.90
2023-04-11T15:58:36.715Z,63.50
2023-04-11T16:01:05.640Z,64.00
2023-04-11T16:03:32.940Z,63.90
2023-04-11T16:06:01.162Z,63.40
2023-04-11T16:08:27.919Z,63.80
2023-04-11T16:10:57.668Z,63.20
2023-04-11T16:13:31.506Z,63.60
2023-04-11T16:16:00.610Z,63.40
2023-04-11T16:18:29.944Z,63.10
2023-04-11T16:20:56.635Z,63.70
2023-04-11T16:23:25.778Z,63.80
2023-04-11T16:25:57.317Z,64.00
2023-04-11T16:28:26.640Z,63.80
2023-04-11T16:30:53.388Z,63.30
2023-04-11T16:33:20.066Z,64.20
2023-04-11T16:35:46.790Z,64.60
2023-04-11T16:38:13.630Z,64.90
2023-04-11T16:40:40.354Z,65.10
2023-04-11T16:43:07.108Z,65.50
2023-04-11T16:45:33.820Z,65.90
2023-04-11T16:48:00.753Z,65.50
2023-04-11T16:50:32.229Z,66.40
2023-04-11T16:53:01.380Z,66.80
2023-04-11T16:55:28.000Z,67.20
2023-04-11T16:57:57.174Z,66.90
2023-04-11T17:00:24.536Z,67.10
2023-04-11T17:02:51.682Z,67.40
2023-04-11T17:05:20.925Z,67.50
2023-04-11T17:07:50.000Z,67.80
2023-04-11T17:10:19.042Z,67.90
2023-04-11T17:12:47.899Z,69.20
2023-04-11T17:15:16.759Z,68.60
2023-04-11T17:17:45.651Z,68.90
2023-04-11T17:20:15.017Z,69.00
2023-04-11T17:22:43.414Z,69.30
2023-04-11T17:25:10.309Z,69.40
2023-04-11T17:27:37.153Z,69.30
2023-04-11T17:30:09.503Z,69.40
2023-04-11T17:32:39.465Z,69.90
2023-04-11T17:35:09.016Z,69.90
2023-04-11T17:37:39.605Z,70.20
2023-04-11T17:40:11.975Z,69.90
2023-04-11T17:42:41.498Z,70.90
2023-04-11T17:45:18.088Z,70.70
2023-04-11T17:47:47.889Z,71.20
2023-04-11T17:50:17.365Z,71.30
2023-04-11T17:52:45.241Z,71.60
2023-04-11T17:55:16.315Z,71.80
2023-04-11T17:57:49.047Z,72.10
2023-04-11T18:00:20.107Z,72.40
2023-04-11T18:02:52.518Z,73.50
2023-04-11T18:05:24.277Z,74.20
2023-04-11T18:07:57.348Z,73.70
2023-04-11T18:10:28.179Z,74.90
2023-04-11T18:12:58.553Z,75.50
2023-04-11T18:15:26.476Z,76.00
2023-04-11T18:17:53.590Z,76.90
2023-04-11T18:20:23.104Z,77.40
2023-04-11T18:22:51.709Z,77.10
2023-04-11T18:25:21.545Z,77.40
2023-04-11T18:27:51.000Z,77.80
2023-04-11T18:30:18.009Z,78.00
2023-04-11T18:32:50.257Z,77.80
2023-04-11T18:35:18.635Z,78.90
2023-04-11T18:37:48.198Z,78.90
2023-04-11T18:40:18.264Z,78.90
2023-04-11T18:42:48.050Z,79.50
2023-04-11T18:45:21.201Z,79.30
2023-04-11T18:47:48.089Z,80.10
2023-04-11T18:50:15.646Z,80.40
2023-04-11T18:52:47.711Z,80.20
2023-04-11T18:55:22.533Z,80.80
2023-04-11T18:57:52.114Z,80.60
2023-04-11T19:00:20.355Z,80.70
2023-04-11T19:02:50.889Z,81.20
2023-04-11T19:05:20.635Z,81.40
2023-04-11T19:07:49.580Z,81.20
2023-04-11T19:10:18.833Z,81.70
2023-04-11T19:12:50.039Z,82.00
2023-04-11T19:15:16.808Z,82.50
2023-04-11T19:17:46.315Z,82.50
2023-04-11T19:20:13.562Z,83.20
2023-04-11T19:22:41.049Z,83.00
2023-04-11T19:25:14.689Z,83.20
2023-04-11T19:27:44.298Z,83.60
2023-04-11T19:30:13.522Z,83.00
2023-04-11T19:32:43.209Z,83.60
2023-04-11T19:35:10.956Z,84.20
2023-04-11T19:37:38.169Z,84.10
2023-04-11T19:40:24.376Z,84.50
2023-04-11T19:42:51.682Z,85.00
2023-04-11T19:45:18.699Z,85.00
2023-04-11T19:47:45.452Z,84.60
2023-04-11T19:50:13.320Z,84.60
2023-04-11T19:52:41.314Z,85.30
2023-04-11T19:55:09.444Z,86.10
2023-04-11T19:57:40.234Z,85.80
2023-04-11T20:00:12.826Z,85.80
2023-04-11T20:02:47.304Z,85.50
2023-04-11T20:05:16.265Z,86.10
2023-04-11T20:07:43.997Z,86.20
2023-04-11T20:10:17.740Z,86.00
2023-04-11T20:12:47.105Z,86.30
2023-04-11T20:15:14.734Z,86.40
2023-04-11T20:17:46.080Z,86.70
2023-04-11T20:20:15.631Z,87.00
2023-04-11T20:22:44.764Z,87.40
2023-04-11T20:25:11.944Z,87.00
2023-04-11T20:27:39.381Z,87.70
2023-04-11T20:30:08.708Z,87.30
2023-04-11T20:32:35.608Z,88.00
2023-04-11T20:35:02.559Z,88.00
2023-04-11T20:37:34.284Z,88.40
2023-04-11T20:40:08.009Z,88.10
2023-04-11T20:42:42.376Z,88.60
2023-04-11T20:45:11.464Z,89.20
2023-04-11T20:47:38.958Z,89.20
2023-04-11T20:50:07.509Z,89.00
2023-04-11T20:52:34.708Z,89.70
2023-04-11T20:55:02.502Z,90.00
2023-04-11T20:57:35.548Z,90.00
2023-04-11T21:00:16.878Z,90.10
2023-04-11T21:02:45.955Z,90.20
2023-04-11T21:05:13.952Z,90.40
2023-04-11T21:07:41.985Z,90.50
2023-04-11T21:10:12.182Z,90.50
2023-04-11T21:12:39.415Z,90.40
2023-04-11T21:15:11.764Z,90.60
2023-04-11T21:17:43.872Z,90.60
2023-04-11T21:20:18.118Z,90.90
2023-04-11T21:22:49.665Z,90.90
2023-04-11T21:25:16.715Z,91.10
2023-04-11T21:27:43.517Z,91.20
2023-04-11T21:30:10.920Z,91.20
2023-04-11T21:32:38.205Z,91.30
2023-04-11T21:35:10.434Z,91.10
2023-04-11T21:37:37.268Z,91.30
2023-04-11T21:40:04.463Z,91.30
2023-04-11T21:42:31.443Z,91.40
2023-04-11T21:45:00.423Z,91.40
2023-04-11T21:47:29.567Z,91.60
2023-04-11T21:49:58.467Z,91.60
2023-04-11T21:52:27.744Z,91.70
2023-04-11T21:54:56.666Z,92.10
2023-04-11T21:57:23.358Z,91.90
2023-04-11T21:59:50.052Z,91.90
2023-04-11T22:02:16.883Z,92.40
2023-04-11T22:05:00.934Z,92.40
2023-04-11T22:07:46.190Z,92.30
2023-04-11T22:10:13.159Z,92.60
2023-04-11T22:12:42.076Z,92.40
2023-04-11T22:15:12.663Z,92.60
2023-04-11T22:17:42.250Z,92.40
2023-04-11T22:20:11.960Z,92.60
2023-04-11T22:22:38.764Z,92.70
2023-04-11T22:25:06.875Z,92.80
2023-04-11T22:27:34.552Z,92.70
2023-04-11T22:30:02.385Z,92.60
2023-04-11T22:32:30.221Z,93.10
2023-04-11T22:34:56.954Z,93.10
2023-04-11T22:37:26.243Z,93.10
2023-04-11T22:39:53.024Z,93.30
2023-04-11T22:42:19.976Z,93.30
2023-04-11T22:44:46.663Z,93.20
2023-04-11T22:47:16.465Z,93.60
2023-04-11T22:49:48.560Z,93.60
2023-04-11T22:52:15.474Z,93.70
2023-04-11T22:54:42.646Z,93.60
2023-04-11T22:57:12.027Z,93.80
2023-04-11T22:59:38.681Z,93.70
2023-04-11T23:02:05.495Z,93.80
2023-04-11T23:04:32.624Z,93.80
2023-04-11T23:07:01.836Z,94.10
2023-04-11T23:09:28.476Z,94.10
2023-04-11T23:11:55.197Z,94.00
2023-04-11T23:14:30.917Z,94.10
2023-04-11T23:16:57.768Z,94.00
2023-04-11T23:19:24.514Z,94.10
2023-04-11T23:21:51.185Z,94.10
2023-04-11T23:24:17.938Z,94.20
2023-04-11T23:26:44.634Z,94.20
2023-04-11T23:29:11.351Z,94.30
2023-04-11T23:31:40.503Z,94.20
2023-04-11T23:34:07.149Z,94.40
2023-04-11T23:36:34.465Z,94.60
2023-04-11T23:39:01.925Z,94.80
2023-04-11T23:41:30.170Z,94.70
2023-04-11T23:46:24.650Z,94.70
2023-04-11T23:48:52.767Z,95.00
2023-04-11T23:51:24.437Z,95.00
2023-04-11T23:53:51.056Z,95.20
2023-04-11T23:56:20.522Z,95.20
2023-04-11T23:58:49.737Z,95.50
